createdAt,value
2018-05-09T00:00:13.673Z,70.70
2018-05-09T00:02:41.762Z,70.70
2018-05-09T00:05:09.813Z,71.90
2018-05-09T00:07:38.201Z,72.00
2018-05-09T00:10:06.257Z,71.90
2018-05-09T00:12:34.323Z,72.30
2018-05-09T00:15:02.551Z,72.80
2018-05-09T00:17:30.622Z,73.00
2018-05-09T00:19:58.687Z,73.00
2018-05-09T00:22:27.076Z,73.70
2018-05-09T00:24:55.144Z,74.10
2018-05-09T00:27:23.210Z,74.30
2018-05-09T00:29:51.589Z,74.80
2018-05-09T00:32:19.670Z,74.80
2018-05-09T00:34:47.734Z,75.80
2018-05-09T00:37:16.127Z,75.60
2018-05-09T00:39:44.181Z,76.10
2018-05-09T00:42:12.278Z,76.00
2018-05-09T00:44:40.687Z,76.20
2018-05-09T00:47:08.750Z,76.30
2018-05-09T00:49:37.594Z,77.30
2018-05-09T00:52:05.746Z,77.30
2018-05-09T00:54:33.806Z,78.30
2018-05-09T00:57:01.878Z,79.50
2018-05-09T00:59:30.069Z,79.70
2018-05-09T01:01:58.128Z,80.70
2018-05-09T01:04:26.210Z,81.50
2018-05-09T01:06:54.504Z,82.90
2018-05-09T01:09:22.700Z,83.00
2018-05-09T01:11:50.764Z,82.70
2018-05-09T01:14:19.332Z,84.70
2018-05-09T01:16:47.392Z,85.90
2018-05-09T01:19:15.462Z,87.10
2018-05-09T01:21:43.646Z,89.00
2018-05-09T01:24:11.704Z,90.30
2018-05-09T01:26:39.787Z,90.70
2018-05-09T01:29:08.378Z,91.20
2018-05-09T01:31:36.442Z,91.50
2018-05-09T01:34:04.535Z,91.80
2018-05-09T01:36:33.816Z,92.00
2018-05-09T01:39:01.872Z,92.00
2018-05-09T01:41:29.966Z,92.10
2018-05-09T01:43:58.645Z,92.10
2018-05-09T01:46:26.702Z,92.10
2018-05-09T01:48:54.766Z,92.10
2018-05-09T01:51:22.866Z,92.00
2018-05-09T01:53:50.926Z,92.50
2018-05-09T01:56:19.017Z,92.50
2018-05-09T01:58:47.418Z,92.70
2018-05-09T02:01:16.246Z,92.80
2018-05-09T02:03:44.328Z,92.70
2018-05-09T02:06:12.966Z,92.70
2018-05-09T02:08:40.875Z,92.60
2018-05-09T02:11:09.632Z,92.70
2018-05-09T02:13:38.551Z,93.20
2018-05-09T02:16:06.613Z,93.20
2018-05-09T02:18:34.668Z,93.50
2018-05-09T02:21:03.123Z,94.00
2018-05-09T02:23:31.937Z,93.70
2018-05-09T02:26:00.010Z,93.70
2018-05-09T02:28:28.533Z,93.70
2018-05-09T02:30:56.587Z,93.60
2018-05-09T02:33:24.649Z,94.00
2018-05-09T02:35:53.062Z,94.70
2018-05-09T02:38:21.131Z,95.20
2018-05-09T02:40:49.205Z,95.60
2018-05-09T02:43:17.585Z,95.60
2018-05-09T02:45:45.649Z,95.80
2018-05-09T02:48:13.724Z,96.10
2018-05-09T02:50:42.118Z,96.30
2018-05-09T02:53:10.168Z,96.30
2018-05-09T02:55:38.258Z,96.20
2018-05-09T02:58:06.623Z,96.30
2018-05-09T03:00:34.688Z,95.40
2018-05-09T03:03:02.776Z,95.60
2018-05-09T03:05:31.512Z,95.20
2018-05-09T03:07:59.497Z,95.20
2018-05-09T03:10:27.587Z,95.20
2018-05-09T03:12:56.135Z,95.70
2018-05-09T03:15:24.188Z,95.70
2018-05-09T03:17:52.278Z,95.90
2018-05-09T03:20:20.942Z,95.70
2018-05-09T03:22:48.958Z,95.70
2018-05-09T03:25:17.026Z,95.90
2018-05-09T03:27:45.191Z,95.90
2018-05-09T03:30:13.263Z,96.00
2018-05-09T03:32:41.326Z,96.10
2018-05-09T03:35:10.014Z,96.30
2018-05-09T03:37:39.224Z,96.70
2018-05-09T03:40:13.324Z,96.70
2018-05-09T03:42:41.406Z,96.80
2018-05-09T03:45:09.447Z,97.20
2018-05-09T03:47:37.874Z,97.40
2018-05-09T03:50:05.944Z,97.50
2018-05-09T03:52:34.008Z,97.70
2018-05-09T03:55:02.247Z,98.10
2018-05-09T03:57:30.301Z,98.60
2018-05-09T03:59:58.364Z,98.70
2018-05-09T04:02:44.026Z,98.60
2018-05-09T04:05:23.885Z,98.90
2018-05-09T04:08:04.519Z,99.30
2018-05-09T04:10:32.902Z,99.20
2018-05-09T04:13:01.450Z,99.10
2018-05-09T04:15:29.512Z,99.00
2018-05-09T04:17:57.745Z,99.10
2018-05-09T04:20:25.825Z,98.80
2018-05-09T04:22:54.644Z,99.10
2018-05-09T04:25:22.876Z,98.80
2018-05-09T04:27:50.942Z,98.80
2018-05-09T04:30:19.006Z,98.50
2018-05-09T04:32:47.121Z,98.50
2018-05-09T04:35:15.954Z,98.50
2018-05-09T04:37:44.010Z,98.40
2018-05-09T04:40:12.529Z,98.20
2018-05-09T04:42:40.590Z,98.20
2018-05-09T04:45:08.647Z,98.10
2018-05-09T04:47:36.843Z,98.20
2018-05-09T04:50:04.900Z,98.10
2018-05-09T04:52:32.962Z,98.10
2018-05-09T04:55:01.570Z,97.60
2018-05-09T04:57:29.636Z,97.90
2018-05-09T04:59:57.699Z,98.00
2018-05-09T05:02:25.855Z,97.90
2018-05-09T05:04:53.924Z,98.00
2018-05-09T05:07:21.988Z,98.00
2018-05-09T05:09:50.309Z,98.00
2018-05-09T05:12:18.398Z,97.90
2018-05-09T05:14:47.411Z,97.70
2018-05-09T05:17:16.666Z,97.70
2018-05-09T05:19:44.753Z,97.80
2018-05-09T05:22:13.599Z,98.00
2018-05-09T05:24:41.748Z,98.00
2018-05-09T05:27:09.822Z,97.80
2018-05-09T05:29:37.877Z,98.00
2018-05-09T05:32:06.370Z,97.90
2018-05-09T05:34:34.425Z,97.90
2018-05-09T05:37:03.259Z,98.50
2018-05-09T05:39:31.766Z,98.20
2018-05-09T05:41:59.844Z,97.60
2018-05-09T05:44:27.903Z,97.60
2018-05-09T05:46:56.132Z,97.50
2018-05-09T05:49:24.219Z,97.40
2018-05-09T05:51:52.275Z,97.70
2018-05-09T05:54:20.498Z,97.70
2018-05-09T05:56:48.592Z,97.80
2018-05-09T05:59:17.426Z,97.10
2018-05-09T06:01:45.936Z,97.00
2018-05-09T06:04:14.022Z,97.50
2018-05-09T06:06:42.093Z,97.50
2018-05-09T06:09:10.452Z,97.40
2018-05-09T06:11:38.533Z,97.60
2018-05-09T06:14:06.592Z,97.40
2018-05-09T06:16:35.029Z,97.10
2018-05-09T06:19:03.936Z,96.60
2018-05-09T06:21:31.996Z,96.60
2018-05-09T06:24:00.482Z,96.40
2018-05-09T06:26:28.522Z,96.30
2018-05-09T06:28:57.352Z,96.70
2018-05-09T06:31:25.862Z,96.70
2018-05-09T06:33:53.936Z,96.60
2018-05-09T06:36:22.012Z,96.00
2018-05-09T06:38:50.390Z,96.10
2018-05-09T06:41:18.445Z,95.80
2018-05-09T06:43:46.609Z,95.80
2018-05-09T06:46:15.825Z,96.00
2018-05-09T06:48:43.897Z,95.60
2018-05-09T06:51:11.967Z,95.60
2018-05-09T06:53:40.342Z,95.20
2018-05-09T06:56:08.423Z,95.30
2018-05-09T06:58:36.491Z,95.00
2018-05-09T07:01:04.897Z,94.70
2018-05-09T07:03:33.730Z,93.10
2018-05-09T07:06:01.805Z,93.10
2018-05-09T07:08:30.309Z,93.30
2018-05-09T07:10:58.372Z,93.10
2018-05-09T07:13:26.452Z,92.80
2018-05-09T07:15:54.621Z,93.40
2018-05-09T07:18:22.897Z,92.00
2018-05-09T07:20:50.956Z,91.70
2018-05-09T07:23:19.385Z,91.30
2018-05-09T07:25:48.212Z,91.20
2018-05-09T07:28:16.264Z,91.20
2018-05-09T07:30:44.809Z,91.00
2018-05-09T07:33:13.632Z,90.70
2018-05-09T07:35:41.689Z,90.70
2018-05-09T07:38:10.232Z,90.90
2018-05-09T07:40:38.304Z,90.10
2018-05-09T07:43:06.371Z,89.40
2018-05-09T07:45:34.752Z,89.60
2018-05-09T07:48:02.821Z,88.50
2018-05-09T07:50:30.890Z,86.70
2018-05-09T07:52:59.304Z,88.00
2018-05-09T07:55:28.233Z,85.60
2018-05-09T07:57:56.221Z,85.60
2018-05-09T08:00:25.639Z,85.60
2018-05-09T08:02:53.720Z,85.60
2018-05-09T08:05:21.780Z,85.70
2018-05-09T08:07:50.166Z,81.40
2018-05-09T08:10:18.266Z,79.90
2018-05-09T08:12:47.129Z,78.30
2018-05-09T08:17:50.037Z,79.50
2018-05-09T08:20:18.979Z,78.40
2018-05-09T08:22:47.041Z,79.30
2018-05-09T08:25:15.108Z,77.20
2018-05-09T08:27:43.337Z,76.70
2018-05-09T08:30:11.422Z,76.10
2018-05-09T08:32:40.258Z,78.70
2018-05-09T08:35:08.774Z,78.50
2018-05-09T08:37:36.860Z,76.30
2018-05-09T08:40:04.922Z,76.20
2018-05-09T08:42:33.288Z,75.50
2018-05-09T08:45:01.376Z,74.90
2018-05-09T08:47:29.436Z,76.20
2018-05-09T08:49:57.840Z,77.10
2018-05-09T08:52:26.679Z,77.10
2018-05-09T08:54:54.736Z,77.00
2018-05-09T08:57:23.248Z,77.30
2018-05-09T08:59:51.339Z,77.70
2018-05-09T09:02:19.396Z,76.30
2018-05-09T09:04:47.772Z,77.80
2018-05-09T09:07:15.848Z,76.50
2018-05-09T09:09:43.918Z,76.80
2018-05-09T09:12:12.300Z,75.60
2018-05-09T09:14:40.366Z,76.20
2018-05-09T09:17:08.430Z,75.40
2018-05-09T09:19:37.128Z,74.80
2018-05-09T09:22:05.862Z,74.80
2018-05-09T09:24:34.670Z,75.20
2018-05-09T09:27:03.179Z,75.10
2018-05-09T09:29:31.280Z,74.30
2018-05-09T09:32:00.109Z,76.50
2018-05-09T09:34:28.314Z,76.50
2018-05-09T09:36:56.397Z,73.80
2018-05-09T09:39:24.464Z,74.60
2018-05-09T09:41:52.833Z,74.30
2018-05-09T09:44:20.909Z,72.50
2018-05-09T09:46:49.031Z,71.50
2018-05-09T09:49:17.997Z,73.40
2018-05-09T09:51:46.821Z,72.50
2018-05-09T09:54:14.879Z,72.40
2018-05-09T09:56:43.061Z,70.90
2018-05-09T09:59:11.135Z,72.10
2018-05-09T10:01:39.218Z,68.40
2018-05-09T10:04:07.655Z,69.20
2018-05-09T10:06:36.479Z,68.80
2018-05-09T10:09:05.429Z,68.70
2018-05-09T10:11:33.709Z,65.20
2018-05-09T10:14:02.540Z,65.00
2018-05-09T10:16:30.605Z,64.20
2018-05-09T10:18:58.838Z,65.30
2018-05-09T10:21:27.665Z,62.40
2018-05-09T10:23:56.045Z,62.80
2018-05-09T10:26:24.188Z,60.90
2018-05-09T10:28:52.253Z,61.30
2018-05-09T10:31:20.363Z,60.70
2018-05-09T10:33:48.809Z,62.50
2018-05-09T10:36:17.629Z,60.30
2018-05-09T10:38:45.688Z,60.10
2018-05-09T10:41:13.955Z,59.50
2018-05-09T10:43:42.776Z,56.20
2018-05-09T10:46:10.836Z,56.00
2018-05-09T10:48:39.087Z,57.00
2018-05-09T10:51:07.921Z,53.50
2018-05-09T10:53:35.990Z,53.40
2018-05-09T10:56:04.504Z,54.90
2018-05-09T10:58:32.582Z,56.40
2018-05-09T11:01:00.640Z,55.90
2018-05-09T11:03:29.018Z,54.60
2018-05-09T11:05:57.109Z,53.60
2018-05-09T11:08:25.939Z,54.20
2018-05-09T11:10:54.472Z,54.10
2018-05-09T11:13:22.537Z,51.70
2018-05-09T11:15:50.639Z,52.40
2018-05-09T11:18:18.969Z,50.00
2018-05-09T11:20:47.057Z,49.00
2018-05-09T11:23:15.118Z,48.80
2018-05-09T11:25:43.969Z,51.50
2018-05-09T11:28:12.033Z,51.30
2018-05-09T11:30:40.107Z,52.10
2018-05-09T11:33:08.638Z,52.20
2018-05-09T11:35:36.709Z,52.50
2018-05-09T11:38:04.771Z,52.40
2018-05-09T11:40:33.203Z,52.70
2018-05-09T11:43:01.255Z,50.70
2018-05-09T11:45:30.086Z,52.20
2018-05-09T11:47:58.603Z,52.20
2018-05-09T11:50:26.674Z,51.60
2018-05-09T11:52:54.732Z,53.50
2018-05-09T11:55:23.127Z,52.80
2018-05-09T11:57:51.183Z,52.60
2018-05-09T12:00:19.402Z,53.90
2018-05-09T12:02:47.933Z,55.90
2018-05-09T12:05:16.002Z,59.30
2018-05-09T12:07:44.082Z,61.10
2018-05-09T12:10:12.237Z,62.30
2018-05-09T12:12:40.303Z,62.80
2018-05-09T12:15:08.391Z,63.70
2018-05-09T12:17:36.676Z,64.40
2018-05-09T12:20:04.721Z,65.10
2018-05-09T12:22:32.790Z,66.60
2018-05-09T12:25:01.211Z,68.30
2018-05-09T12:27:29.753Z,69.00
2018-05-09T12:29:57.801Z,68.60
2018-05-09T12:32:26.341Z,68.20
2018-05-09T12:34:54.413Z,69.00
2018-05-09T12:37:22.469Z,66.60
2018-05-09T12:39:50.867Z,67.20
2018-05-09T12:42:18.941Z,65.80
2018-05-09T12:44:47.017Z,66.30
2018-05-09T12:47:16.022Z,63.40
2018-05-09T12:49:44.852Z,60.40
2018-05-09T12:52:12.912Z,60.40
2018-05-09T12:54:41.515Z,61.20
2018-05-09T12:57:09.526Z,61.10
2018-05-09T12:59:37.592Z,61.50
2018-05-09T13:02:06.270Z,60.50
2018-05-09T13:04:34.333Z,62.30
2018-05-09T13:07:02.391Z,61.60
2018-05-09T13:09:30.794Z,62.20
2018-05-09T13:11:58.868Z,61.50
2018-05-09T13:14:26.930Z,60.50
2018-05-09T13:16:55.304Z,59.70
2018-05-09T13:19:23.366Z,59.90
2018-05-09T13:21:51.422Z,56.60
2018-05-09T13:24:19.682Z,57.20
2018-05-09T13:26:47.747Z,57.60
2018-05-09T13:29:16.441Z,58.10
2018-05-09T13:34:19.393Z,56.20
2018-05-09T13:36:47.871Z,56.20
2018-05-09T13:39:15.919Z,56.10
2018-05-09T13:41:43.974Z,56.20
2018-05-09T13:44:12.157Z,56.80
2018-05-09T13:46:40.211Z,56.00
2018-05-09T13:49:08.295Z,55.40
2018-05-09T13:51:36.887Z,56.80
2018-05-09T13:54:04.943Z,55.80
2018-05-09T13:56:33.017Z,55.50
2018-05-09T13:59:01.166Z,55.50
2018-05-09T14:01:29.225Z,55.40
2018-05-09T14:03:57.330Z,54.60
2018-05-09T14:06:25.385Z,55.30
2018-05-09T14:08:53.462Z,55.90
2018-05-09T14:11:21.783Z,56.40
2018-05-09T14:13:49.825Z,56.10
2018-05-09T14:16:17.886Z,54.00
2018-05-09T14:18:46.301Z,55.70
2018-05-09T14:21:14.357Z,55.90
2018-05-09T14:23:42.414Z,56.70
2018-05-09T14:26:11.129Z,56.90
2018-05-09T14:28:39.185Z,57.90
2018-05-09T14:31:07.738Z,57.80
2018-05-09T14:33:35.948Z,58.20
2018-05-09T14:36:04.000Z,59.40
2018-05-09T14:38:32.077Z,58.80
2018-05-09T14:43:34.709Z,62.20
2018-05-09T14:46:03.696Z,61.90
2018-05-09T14:48:32.524Z,62.60
2018-05-09T14:51:00.598Z,61.70
2018-05-09T14:53:28.800Z,62.20
2018-05-09T14:55:56.875Z,63.40
2018-05-09T14:58:25.021Z,64.30
2018-05-09T15:00:53.360Z,60.40
2018-05-09T15:03:22.184Z,59.20
2018-05-09T15:05:50.240Z,59.20
2018-05-09T15:08:18.512Z,59.00
2018-05-09T15:10:46.576Z,59.10
2018-05-09T15:13:15.396Z,58.50
2018-05-09T15:15:43.920Z,58.50
2018-05-09T15:18:12.005Z,56.70
2018-05-09T15:20:40.044Z,55.00
2018-05-09T15:23:08.213Z,53.90
2018-05-09T15:25:36.320Z,52.40
2018-05-09T15:28:04.412Z,50.70
2018-05-09T15:30:32.730Z,51.40
2018-05-09T15:33:02.003Z,50.00
2018-05-09T15:35:30.805Z,49.80
2018-05-09T15:37:58.920Z,49.80
2018-05-09T15:40:26.994Z,48.30
2018-05-09T15:42:55.062Z,49.50
2018-05-09T15:45:23.526Z,50.80
2018-05-09T15:47:51.621Z,51.10
2018-05-09T15:50:20.516Z,51.60
2018-05-09T15:52:48.964Z,51.60
2018-05-09T15:55:17.045Z,51.10
2018-05-09T15:57:45.104Z,51.90
2018-05-09T16:00:13.504Z,52.70
2018-05-09T16:02:41.588Z,52.70
2018-05-09T16:05:10.405Z,52.20
2018-05-09T16:07:38.925Z,52.20
2018-05-09T16:10:06.995Z,51.90
2018-05-09T16:12:35.051Z,53.00
2018-05-09T16:15:03.503Z,53.00
2018-05-09T16:17:31.569Z,54.50
2018-05-09T16:19:59.622Z,55.40
2018-05-09T16:22:28.944Z,56.40
2018-05-09T16:24:56.973Z,56.40
2018-05-09T16:27:25.030Z,57.50
2018-05-09T16:29:53.473Z,57.00
2018-05-09T16:32:21.538Z,58.00
2018-05-09T16:34:50.841Z,58.70
2018-05-09T16:37:18.925Z,61.10
2018-05-09T16:39:46.979Z,62.50
2018-05-09T16:42:15.308Z,62.50
2018-05-09T16:44:43.386Z,62.10
2018-05-09T16:47:11.447Z,62.00
2018-05-09T16:49:39.823Z,63.40
2018-05-09T16:52:07.890Z,65.00
2018-05-09T16:54:35.946Z,65.60
2018-05-09T16:57:04.167Z,67.70
2018-05-09T16:59:32.222Z,69.10
2018-05-09T17:02:00.287Z,71.00
2018-05-09T17:04:28.533Z,72.70
2018-05-09T17:06:56.599Z,73.80
2018-05-09T17:09:24.650Z,74.00
2018-05-09T17:11:52.795Z,74.60
2018-05-09T17:14:21.632Z,75.90
2018-05-09T17:16:49.691Z,75.80
2018-05-09T17:19:18.026Z,75.90
2018-05-09T17:22:03.478Z,75.10
2018-05-09T17:24:31.870Z,74.40
2018-05-09T17:26:59.930Z,75.40
2018-05-09T17:29:28.047Z,76.40
2018-05-09T17:31:56.999Z,75.30
2018-05-09T17:34:25.070Z,75.30
2018-05-09T17:36:53.605Z,76.00
2018-05-09T17:39:22.837Z,78.00
2018-05-09T17:41:50.829Z,78.00
2018-05-09T17:44:18.898Z,77.70
2018-05-09T17:46:47.260Z,77.20
2018-05-09T17:49:16.592Z,78.00
2018-05-09T17:51:44.653Z,79.90
2018-05-09T17:54:13.027Z,80.50
2018-05-09T17:56:41.097Z,82.00
2018-05-09T17:59:09.152Z,82.10
2018-05-09T18:01:37.543Z,82.80
2018-05-09T18:04:05.747Z,84.30
2018-05-09T18:06:33.680Z,85.90
2018-05-09T18:09:02.479Z,86.70
2018-05-09T18:11:30.553Z,85.70
2018-05-09T18:13:58.679Z,85.90
2018-05-09T18:16:26.769Z,85.60
2018-05-09T18:18:55.613Z,82.70
2018-05-09T18:21:24.437Z,82.90
2018-05-09T18:23:53.033Z,82.90
2018-05-09T18:26:21.118Z,85.10
2018-05-09T18:28:49.162Z,82.90
2018-05-09T18:31:17.301Z,80.90
2018-05-09T18:33:45.364Z,80.00
2018-05-09T18:36:14.187Z,82.50
2018-05-09T18:38:42.775Z,82.50
2018-05-09T18:41:10.838Z,83.30
2018-05-09T18:43:38.894Z,81.90
2018-05-09T18:46:07.135Z,84.10
2018-05-09T18:48:35.192Z,84.90
2018-05-09T18:51:03.263Z,84.60
2018-05-09T18:53:31.656Z,84.30
2018-05-09T18:55:59.708Z,84.60
2018-05-09T18:58:27.770Z,84.70
2018-05-09T19:00:56.206Z,84.20
2018-05-09T19:03:24.314Z,84.10
2018-05-09T19:05:52.378Z,84.60
2018-05-09T19:08:20.546Z,85.70
2018-05-09T19:10:48.607Z,85.30
2018-05-09T19:13:16.668Z,85.80
2018-05-09T19:15:45.244Z,85.80
2018-05-09T19:18:14.081Z,86.60
2018-05-09T19:20:42.142Z,86.60
2018-05-09T19:23:10.453Z,87.10
2018-05-09T19:25:39.212Z,88.20
2018-05-09T19:28:07.272Z,88.10
2018-05-09T19:30:35.418Z,88.00
2018-05-09T19:33:04.243Z,88.20
2018-05-09T19:35:32.599Z,88.20
2018-05-09T19:38:00.693Z,88.00
2018-05-09T19:40:29.163Z,87.90
2018-05-09T19:42:57.667Z,88.90
2018-05-09T19:45:25.783Z,89.30
2018-05-09T19:47:54.671Z,90.10
2018-05-09T19:50:23.150Z,90.10
2018-05-09T19:52:52.154Z,90.20
2018-05-09T19:55:20.988Z,90.40
2018-05-09T19:57:50.136Z,90.50
2018-05-09T20:00:18.246Z,90.50
2018-05-09T20:02:46.325Z,91.00
2018-05-09T20:05:14.615Z,90.70
2018-05-09T20:07:42.696Z,90.50
2018-05-09T20:10:10.751Z,91.00
2018-05-09T20:12:38.908Z,90.60
2018-05-09T20:15:06.984Z,90.70
2018-05-09T20:17:35.038Z,90.60
2018-05-09T20:20:03.399Z,91.10
2018-05-09T20:22:31.485Z,91.10
2018-05-09T20:24:59.567Z,90.90
2018-05-09T20:27:27.870Z,91.00
2018-05-09T20:29:55.932Z,91.40
2018-05-09T20:32:33.531Z,91.70
2018-05-09T20:35:01.607Z,91.70
2018-05-09T20:37:29.717Z,91.90
2018-05-09T20:39:58.121Z,92.30
2018-05-09T20:42:26.612Z,92.40
2018-05-09T20:44:54.670Z,92.50
2018-05-09T20:47:23.213Z,92.60
2018-05-09T20:49:52.043Z,92.20
2018-05-09T20:52:20.149Z,92.10
2018-05-09T20:54:49.250Z,92.00
2018-05-09T20:57:17.322Z,92.30
2018-05-09T20:59:45.382Z,92.10
2018-05-09T21:02:13.802Z,92.10
2018-05-09T21:04:42.651Z,92.10
2018-05-09T21:07:10.731Z,92.00
2018-05-09T21:09:39.258Z,92.20
2018-05-09T21:12:08.933Z,92.20
2018-05-09T21:14:37.027Z,92.20
2018-05-09T21:17:05.271Z,92.20
2018-05-09T21:19:33.361Z,92.30
2018-05-09T21:22:02.182Z,92.50
2018-05-09T21:24:30.420Z,92.20
2018-05-09T21:26:59.281Z,92.30
2018-05-09T21:29:27.365Z,92.20
2018-05-09T21:31:55.469Z,92.30
2018-05-09T21:34:24.300Z,92.10
2018-05-09T21:36:52.374Z,92.10
2018-05-09T21:39:21.022Z,92.10
2018-05-09T21:41:49.439Z,92.20
2018-05-09T21:44:18.308Z,92.20
2018-05-09T21:46:46.501Z,91.90
2018-05-09T21:49:14.599Z,91.70
2018-05-09T21:51:42.652Z,91.90
2018-05-09T21:54:11.232Z,91.90
2018-05-09T21:56:39.329Z,92.20
2018-05-09T21:59:07.382Z,91.70
2018-05-09T22:01:36.072Z,91.70
2018-05-09T22:04:04.137Z,91.80
2018-05-09T22:06:32.190Z,91.80
2018-05-09T22:09:00.396Z,91.70
2018-05-09T22:11:28.458Z,91.70
2018-05-09T22:13:56.514Z,91.80
2018-05-09T22:16:24.832Z,91.60
2018-05-09T22:18:53.769Z,91.90
2018-05-09T22:21:21.716Z,91.90
2018-05-09T22:23:49.833Z,92.00
2018-05-09T22:26:17.899Z,92.00
2018-05-09T22:28:45.947Z,92.10
2018-05-09T22:31:14.203Z,92.20
2018-05-09T22:33:42.265Z,92.30
2018-05-09T22:36:10.328Z,92.30
2018-05-09T22:38:39.602Z,92.70
2018-05-09T22:41:07.665Z,92.70
2018-05-09T22:43:35.734Z,92.80
2018-05-09T22:46:04.591Z,92.90
2018-05-09T22:48:32.643Z,93.00
2018-05-09T22:51:00.712Z,93.00
2018-05-09T22:53:29.265Z,92.70
2018-05-09T22:55:57.329Z,92.80
2018-05-09T22:58:25.405Z,93.10
2018-05-09T23:00:53.633Z,92.80
2018-05-09T23:03:21.699Z,92.80
2018-05-09T23:05:49.789Z,92.90
2018-05-09T23:08:18.293Z,93.00
2018-05-09T23:10:46.358Z,93.10
2018-05-09T23:13:14.428Z,93.20
2018-05-09T23:15:42.585Z,93.30
2018-05-09T23:18:10.670Z,93.50
2018-05-09T23:20:38.734Z,93.70
2018-05-09T23:23:07.024Z,94.10
2018-05-09T23:25:35.087Z,94.30
2018-05-09T23:28:03.218Z,94.40
2018-05-09T23:30:31.620Z,94.50
2018-05-09T23:32:59.690Z,94.50
2018-05-09T23:35:27.772Z,94.60
2018-05-09T23:37:56.065Z,94.80
2018-05-09T23:40:24.117Z,94.80
2018-05-09T23:42:52.186Z,95.00
2018-05-09T23:45:20.386Z,95.60
2018-05-09T23:47:48.842Z,95.60
2018-05-09T23:50:16.899Z,95.90
2018-05-09T23:52:45.080Z,96.10
2018-05-09T23:55:13.138Z,96.40
2018-05-09T23:57:41.205Z,96.70
